Time;durP1;ratioP1;P1;durP2;ratioP2;P2;SDS_P1;SDS_P2;PMS_P1;PMS_P2;Temp;Humidity;BMP_temperature;BMP_pressure;BME280_temperature;BME280_humidity;BME280_pressure;Samples;Min_cycle;Max_cycle;Signal;HPM_P1;HPM_P2
2023/05/25 00:00:11;;;;;;;8.00;3.10;;;12.50;98.90;;;;;;4823734;29;20521;-82
2023/05/25 00:02:38;;;;;;;7.72;2.95;;;12.50;98.80;;;;;;4822464;29;20488;-82
2023/05/25 00:05:08;;;;;;;9.18;2.63;;;12.50;98.80;;;;;;4829369;29;20129;-82
2023/05/25 00:07:33;;;;;;;8.27;3.03;;;12.40;98.60;;;;;;4839949;29;20042;-82
2023/05/25 00:09:59;;;;;;;7.60;2.85;;;12.40;99.00;;;;;;4840637;29;20057;-83
2023/05/25 00:12:25;;;;;;;7.70;2.90;;;12.40;98.30;;;;;;4841437;29;20073;-82
2023/05/25 00:14:50;;;;;;;7.90;3.10;;;12.40;98.30;;;;;;4823918;29;20381;-82
2023/05/25 00:17:17;;;;;;;8.68;2.95;;;12.30;98.30;;;;;;4834497;29;20042;-82
2023/05/25 00:19:44;;;;;;;8.25;2.90;;;12.30;98.30;;;;;;4807047;29;20046;-82
2023/05/25 00:22:10;;;;;;;8.00;3.10;;;12.20;98.30;;;;;;4823700;29;20081;-82
2023/05/25 00:24:37;;;;;;;9.52;2.90;;;12.20;98.20;;;;;;4823411;29;20142;-81
2023/05/25 00:27:03;;;;;;;8.75;3.17;;;12.20;98.10;;;;;;4835960;29;20046;-82
2023/05/25 00:29:29;;;;;;;7.20;2.80;;;12.10;98.30;;;;;;4825381;29;20053;-82
2023/05/25 00:31:55;;;;;;;8.00;3.08;;;12.10;98.50;;;;;;4824502;29;20518;-82
2023/05/25 00:34:21;;;;;;;7.20;2.83;;;12.10;98.40;;;;;;4825519;29;20050;-82
2023/05/25 00:36:47;;;;;;;8.38;3.28;;;12.00;98.30;;;;;;4825206;29;20050;-82
2023/05/25 00:39:18;;;;;;;9.75;3.10;;;12.00;98.50;;;;;;4824857;29;20061;-82
2023/05/25 00:41:44;;;;;;;7.80;3.08;;;11.90;98.50;;;;;;4825448;29;20054;-82
2023/05/25 00:44:11;;;;;;;7.45;2.90;;;11.90;98.30;;;;;;4844035;29;20459;-82
2023/05/25 00:46:37;;;;;;;10.25;3.20;;;11.90;98.50;;;;;;4841668;29;20045;-82
2023/05/25 00:49:03;;;;;;;7.55;3.00;;;11.80;98.40;;;;;;4845319;29;20046;-83
2023/05/25 00:51:35;;;;;;;8.68;3.03;;;11.80;98.60;;;;;;4843500;29;20053;-82
2023/05/25 00:54:01;;;;;;;7.93;2.92;;;11.80;98.70;;;;;;4843274;29;20077;-82
2023/05/25 00:56:31;;;;;;;7.78;3.10;;;11.70;98.60;;;;;;4843864;29;20379;-82
2023/05/25 00:59:02;;;;;;;7.65;2.83;;;11.70;98.90;;;;;;4829374;29;20059;-82
2023/05/25 01:01:32;;;;;;;7.63;2.90;;;11.70;99.10;;;;;;4835589;29;20054;-83
2023/05/25 01:04:00;;;;;;;8.18;2.90;;;11.60;99.10;;;;;;4843261;29;20061;-82
2023/05/25 01:06:32;;;;;;;7.03;3.05;;;11.60;99.20;;;;;;4827333;29;20046;-82
2023/05/25 01:09:02;;;;;;;7.30;3.42;;;11.60;99.30;;;;;;4843810;29;20046;-82
2023/05/25 01:11:35;;;;;;;7.07;3.00;;;11.60;99.30;;;;;;4833672;29;20062;-82
2023/05/25 01:14:01;;;;;;;7.85;3.00;;;11.60;99.40;;;;;;4838708;29;20064;-83
2023/05/25 01:16:27;;;;;;;7.63;3.03;;;11.50;99.20;;;;;;4843180;29;20102;-83
2023/05/25 01:18:53;;;;;;;7.07;2.80;;;11.50;99.20;;;;;;4843054;29;20191;-83
2023/05/25 01:21:30;;;;;;;6.78;3.03;;;11.50;99.30;;;;;;4824237;29;20535;-83
2023/05/25 01:24:07;;;;;;;7.07;3.00;;;11.40;99.40;;;;;;4825969;29;20503;-83
2023/05/25 01:26:41;;;;;;;7.18;3.00;;;11.40;99.50;;;;;;4825436;29;20068;-83
2023/05/25 01:29:09;;;;;;;6.75;3.00;;;11.40;99.40;;;;;;4837525;29;20045;-82
2023/05/25 01:31:36;;;;;;;7.97;3.05;;;11.40;99.10;;;;;;4832020;29;20134;-82
2023/05/25 01:34:03;;;;;;;7.65;3.08;;;11.30;99.00;;;;;;4807518;29;20055;-83
2023/05/25 01:36:28;;;;;;;8.13;3.17;;;11.30;98.90;;;;;;4813627;29;20046;-82
2023/05/25 01:38:54;;;;;;;9.05;3.17;;;11.30;98.90;;;;;;4825747;29;20094;-82
2023/05/25 01:41:20;;;;;;;7.47;2.90;;;11.30;98.80;;;;;;4833428;29;20046;-82
2023/05/25 01:43:46;;;;;;;6.93;3.40;;;11.30;98.80;;;;;;4835308;29;20099;-83
2023/05/25 01:46:25;;;;;;;6.95;2.65;;;11.20;98.70;;;;;;4826107;29;20150;-82
2023/05/25 01:49:00;;;;;;;8.32;3.03;;;11.20;98.70;;;;;;4820976;29;20870;-83
2023/05/25 01:51:39;;;;;;;7.90;3.20;;;11.20;98.80;;;;;;4815289;29;20055;-82
2023/05/25 01:54:18;;;;;;;7.65;3.03;;;11.20;98.80;;;;;;4825569;29;20057;-82
2023/05/25 01:56:45;;;;;;;7.07;2.90;;;11.10;98.70;;;;;;4817111;29;20099;-82
2023/05/25 01:59:13;;;;;;;9.75;3.58;;;11.10;98.70;;;;;;4840597;29;20065;-82
2023/05/25 02:01:41;;;;;;;6.57;2.78;;;11.10;98.60;;;;;;4824808;29;20053;-82
2023/05/25 02:04:07;;;;;;;6.95;2.90;;;11.10;98.30;;;;;;4823814;29;20061;-82
2023/05/25 02:06:35;;;;;;;7.43;3.30;;;11.00;98.20;;;;;;4825413;29;20042;-82
2023/05/25 02:09:01;;;;;;;8.75;3.55;;;11.00;98.10;;;;;;4825492;29;20058;-82
2023/05/25 02:11:27;;;;;;;7.70;3.10;;;10.90;98.20;;;;;;4824984;29;20054;-82
2023/05/25 02:13:52;;;;;;;6.63;2.97;;;10.90;98.30;;;;;;4857508;29;20053;-82
2023/05/25 02:16:18;;;;;;;8.38;3.58;;;10.90;98.20;;;;;;4835031;29;20046;-83
2023/05/25 02:18:44;;;;;;;7.97;2.92;;;10.80;98.00;;;;;;4853887;29;20046;-83
2023/05/25 02:21:10;;;;;;;6.85;3.00;;;10.90;98.00;;;;;;4831909;29;20091;-82
2023/05/25 02:23:36;;;;;;;6.25;2.80;;;10.80;98.10;;;;;;4843295;29;20416;-83
2023/05/25 02:26:01;;;;;;;5.70;2.70;;;10.80;98.10;;;;;;4840339;29;20052;-82
2023/05/25 02:28:27;;;;;;;8.32;3.03;;;10.70;98.00;;;;;;4824913;29;20054;-82
2023/05/25 02:30:53;;;;;;;6.03;2.90;;;10.70;98.10;;;;;;4842174;29;20041;-83
2023/05/25 02:33:19;;;;;;;5.88;2.80;;;10.70;98.10;;;;;;4841251;29;20558;-82
2023/05/25 02:35:44;;;;;;;5.82;2.83;;;10.70;98.10;;;;;;4842956;29;20387;-82
2023/05/25 02:38:10;;;;;;;6.70;2.75;;;10.60;98.00;;;;;;4842479;29;20106;-82
2023/05/25 02:40:36;;;;;;;9.43;3.20;;;10.60;98.10;;;;;;4842612;29;20034;-82
2023/05/25 02:43:01;;;;;;;7.10;2.95;;;10.60;98.10;;;;;;4826771;29;20046;-82
2023/05/25 02:45:27;;;;;;;6.93;3.10;;;10.50;98.10;;;;;;4835544;29;20046;-83
2023/05/25 02:47:52;;;;;;;6.18;2.70;;;10.50;98.40;;;;;;4842905;29;20054;-83
2023/05/25 02:50:18;;;;;;;7.13;2.58;;;10.50;98.50;;;;;;4841817;29;20391;-82
2023/05/25 02:52:43;;;;;;;6.47;2.88;;;10.50;98.30;;;;;;4841402;29;20079;-82
2023/05/25 02:55:12;;;;;;;6.20;2.63;;;10.40;98.50;;;;;;4833033;29;20173;-82
2023/05/25 02:57:37;;;;;;;7.18;2.90;;;10.40;98.70;;;;;;4824328;29;20133;-82
2023/05/25 03:00:06;;;;;;;6.68;2.75;;;10.40;98.70;;;;;;4823342;29;20137;-82
2023/05/25 03:02:32;;;;;;;6.90;2.70;;;10.30;98.80;;;;;;4824759;29;20086;-82
2023/05/25 03:04:58;;;;;;;7.10;2.85;;;10.30;98.80;;;;;;4854040;29;20090;-82
2023/05/25 03:07:25;;;;;;;5.63;2.50;;;10.30;98.80;;;;;;4824098;29;20042;-82
2023/05/25 03:09:51;;;;;;;5.78;2.67;;;10.30;98.90;;;;;;4823339;29;20061;-82
2023/05/25 03:12:17;;;;;;;6.18;2.53;;;10.30;99.00;;;;;;4824537;29;20042;-82
2023/05/25 03:14:42;;;;;;;5.72;2.60;;;10.20;99.00;;;;;;4825631;29;20041;-82
2023/05/25 03:17:08;;;;;;;4.80;2.47;;;10.20;99.00;;;;;;4841421;29;20058;-82
2023/05/25 03:19:33;;;;;;;9.00;3.10;;;10.20;99.10;;;;;;4840684;29;20495;-82
2023/05/25 03:21:59;;;;;;;6.47;2.88;;;10.20;99.10;;;;;;4839612;29;20048;-81
2023/05/25 03:24:25;;;;;;;5.55;2.35;;;10.20;99.30;;;;;;4824427;29;20560;-81
2023/05/25 03:26:51;;;;;;;6.03;2.45;;;10.10;99.30;;;;;;4822936;29;20433;-81
2023/05/25 03:29:17;;;;;;;6.18;2.63;;;10.10;99.30;;;;;;4835448;29;20050;-82
2023/05/25 03:31:42;;;;;;;5.80;2.60;;;10.10;99.40;;;;;;4824167;29;20060;-81
2023/05/25 03:34:08;;;;;;;4.97;2.47;;;10.10;99.60;;;;;;4822952;29;20142;-82
2023/05/25 03:36:34;;;;;;;5.50;2.40;;;10.10;99.60;;;;;;4823439;29;20123;-82
2023/05/25 03:38:59;;;;;;;5.85;2.35;;;10.00;99.60;;;;;;4824009;29;20050;-82
2023/05/25 03:41:25;;;;;;;6.03;2.47;;;10.10;99.40;;;;;;4823429;29;20042;-82
2023/05/25 03:43:51;;;;;;;4.93;2.40;;;10.00;99.40;;;;;;4822648;29;20046;-82
2023/05/25 03:46:17;;;;;;;5.63;2.40;;;10.00;99.40;;;;;;4835201;29;20041;-82
2023/05/25 03:48:42;;;;;;;5.55;2.47;;;10.00;99.40;;;;;;4838419;29;20129;-82
2023/05/25 03:51:08;;;;;;;5.72;2.40;;;10.00;99.40;;;;;;4833246;29;20046;-82
2023/05/25 03:53:33;;;;;;;6.40;2.50;;;10.00;99.40;;;;;;4823755;29;20407;-82
2023/05/25 03:55:59;;;;;;;5.13;2.45;;;9.90;99.40;;;;;;4822252;29;20050;-82
2023/05/25 03:58:25;;;;;;;6.35;2.70;;;9.90;99.40;;;;;;4823662;29;20058;-84
2023/05/25 04:00:51;;;;;;;6.07;2.47;;;9.90;99.50;;;;;;4824822;29;20140;-84
2023/05/25 04:03:17;;;;;;;5.45;2.55;;;9.90;99.40;;;;;;4821711;29;20415;-84
2023/05/25 04:05:44;;;;;;;5.32;2.58;;;9.90;99.20;;;;;;4822518;29;20043;-84
2023/05/25 04:08:13;;;;;;;5.13;2.67;;;9.80;99.10;;;;;;4826032;29;20042;-83
2023/05/25 04:10:39;;;;;;;6.13;2.58;;;9.80;99.50;;;;;;4822415;29;20054;-83
2023/05/25 04:13:04;;;;;;;6.45;2.58;;;9.80;99.10;;;;;;4822808;29;20098;-84
2023/05/25 04:15:30;;;;;;;6.18;2.85;;;9.80;98.90;;;;;;4837283;29;20050;-85
2023/05/25 04:17:58;;;;;;;7.10;2.65;;;9.80;99.00;;;;;;4840824;29;20045;-85
2023/05/25 04:20:23;;;;;;;6.10;2.50;;;9.80;99.00;;;;;;4822548;29;20137;-82
2023/05/25 04:22:49;;;;;;;6.68;2.70;;;9.70;98.90;;;;;;4822589;29;20166;-83
2023/05/25 04:25:15;;;;;;;5.72;2.53;;;9.70;98.90;;;;;;4822214;29;20046;-83
2023/05/25 04:27:41;;;;;;;5.25;2.60;;;9.70;99.00;;;;;;4822400;29;20058;-82
2023/05/25 04:30:07;;;;;;;5.55;2.30;;;9.70;98.90;;;;;;4822913;29;20054;-82
2023/05/25 04:32:36;;;;;;;6.32;2.90;;;9.70;98.90;;;;;;4822920;29;20050;-82
2023/05/25 04:35:02;;;;;;;5.90;2.60;;;9.70;98.90;;;;;;4823931;29;20058;-84
2023/05/25 04:37:29;;;;;;;6.95;2.95;;;9.70;98.70;;;;;;4836323;29;20042;-83
2023/05/25 04:39:56;;;;;;;5.13;2.38;;;9.70;98.70;;;;;;4829214;29;20181;-83
2023/05/25 04:42:22;;;;;;;6.82;2.70;;;9.70;98.90;;;;;;4824173;29;20522;-82
2023/05/25 04:44:52;;;;;;;5.35;2.72;;;9.70;99.00;;;;;;4833721;29;20098;-85
2023/05/25 04:47:18;;;;;;;6.88;2.95;;;9.70;99.00;;;;;;4824778;29;20065;-85
2023/05/25 04:49:44;;;;;;;6.18;2.90;;;9.70;99.40;;;;;;4834003;29;20074;-85
2023/05/25 04:52:09;;;;;;;7.35;3.47;;;9.70;99.00;;;;;;4821320;29;20655;-85
2023/05/25 04:54:35;;;;;;;6.95;2.70;;;9.70;99.00;;;;;;4833201;29;20133;-82
2023/05/25 04:57:02;;;;;;;7.03;2.90;;;9.70;98.80;;;;;;4822070;29;20445;-83
2023/05/25 04:59:27;;;;;;;7.13;3.20;;;9.70;98.70;;;;;;4848224;29;20134;-84
2023/05/25 05:01:53;;;;;;;8.82;3.22;;;9.70;98.70;;;;;;4847030;29;20551;-83
2023/05/25 05:04:19;;;;;;;7.88;3.22;;;9.70;98.70;;;;;;4831084;29;20077;-82
2023/05/25 05:06:45;;;;;;;5.80;3.00;;;9.70;98.80;;;;;;4836685;29;20046;-83
2023/05/25 05:09:10;;;;;;;6.63;3.00;;;9.80;99.20;;;;;;4822078;29;20142;-82
2023/05/25 05:11:36;;;;;;;16.48;6.25;;;9.80;99.40;;;;;;4822690;29;20096;-84
2023/05/25 05:14:01;;;;;;;9.02;3.88;;;9.80;99.80;;;;;;4821137;29;20514;-83
2023/05/25 05:16:32;;;;;;;8.85;3.45;;;9.80;99.90;;;;;;4829054;29;20050;-83
2023/05/25 05:18:58;;;;;;;9.85;3.92;;;9.90;99.90;;;;;;4837728;29;20137;-82
2023/05/25 05:21:23;;;;;;;9.18;4.35;;;9.90;99.90;;;;;;4811993;29;20129;-83
2023/05/25 05:23:50;;;;;;;7.82;3.75;;;9.90;99.80;;;;;;4827911;29;20038;-83
2023/05/25 05:26:15;;;;;;;10.65;4.07;;;9.90;99.70;;;;;;4824249;29;20046;-82
2023/05/25 05:28:41;;;;;;;20.05;7.00;;;10.00;99.80;;;;;;4834266;29;20094;-82
2023/05/25 05:31:07;;;;;;;15.52;5.80;;;10.00;99.90;;;;;;4835566;29;20076;-83
2023/05/25 05:33:32;;;;;;;13.18;5.20;;;10.10;99.90;;;;;;4833357;29;20042;-83
2023/05/25 05:36:00;;;;;;;11.13;4.88;;;10.10;99.90;;;;;;4843142;29;20480;-84
2023/05/25 05:38:25;;;;;;;21.35;8.45;;;10.20;99.90;;;;;;4831013;29;20050;-84
2023/05/25 05:40:51;;;;;;;17.80;7.18;;;10.20;99.90;;;;;;4824881;29;20445;-84
2023/05/25 05:43:17;;;;;;;14.80;5.82;;;10.30;99.90;;;;;;4827981;29;20079;-84
2023/05/25 05:45:42;;;;;;;9.52;4.28;;;10.30;99.90;;;;;;4832578;29;20495;-83
2023/05/25 05:48:11;;;;;;;19.02;7.57;;;10.40;99.90;;;;;;4834691;29;20058;-84
2023/05/25 05:50:37;;;;;;;15.90;6.60;;;10.40;99.90;;;;;;4829639;29;20046;-83
2023/05/25 05:53:03;;;;;;;15.13;7.38;;;10.50;99.90;;;;;;4820192;29;20073;-83
2023/05/25 05:55:28;;;;;;;21.05;8.07;;;10.50;99.90;;;;;;4831092;29;20103;-83
2023/05/25 05:57:54;;;;;;;16.30;6.25;;;10.60;99.90;;;;;;4843542;29;20109;-85
2023/05/25 06:08:50;;;;;;;24.42;8.10;;;10.90;99.90;;;;;;4794386;29;20054;-93
2023/05/25 06:14:00;;;;;;;18.65;6.70;;;11.20;99.90;;;;;;4873827;23;20077;-84
2023/05/25 06:16:25;;;;;;;18.17;7.00;;;11.20;99.90;;;;;;4840982;29;20480;-83
2023/05/25 06:18:51;;;;;;;20.02;6.78;;;11.20;99.90;;;;;;4846349;29;20053;-82
2023/05/25 06:21:17;;;;;;;18.38;6.90;;;11.30;99.90;;;;;;4844534;29;20069;-85
2023/05/25 06:23:42;;;;;;;19.85;7.20;;;11.40;99.90;;;;;;4843864;29;20053;-85
2023/05/25 06:26:08;;;;;;;30.05;8.38;;;11.40;99.90;;;;;;4845682;29;20552;-83
2023/05/25 06:28:33;;;;;;;25.88;8.77;;;11.40;99.90;;;;;;4842495;29;20491;-85
2023/05/25 06:30:59;;;;;;;19.05;7.45;;;11.50;99.90;;;;;;4844035;29;20490;-84
2023/05/25 06:33:25;;;;;;;18.15;7.25;;;11.50;99.90;;;;;;4846569;29;20494;-85
2023/05/25 06:35:51;;;;;;;20.15;7.05;;;11.60;99.90;;;;;;4846293;29;20050;-84
2023/05/25 06:38:17;;;;;;;16.23;6.53;;;11.70;99.90;;;;;;4842338;29;20041;-84
2023/05/25 06:40:42;;;;;;;13.10;5.57;;;11.80;99.90;;;;;;4844487;29;20422;-85
2023/05/25 06:43:08;;;;;;;16.55;5.38;;;11.80;99.90;;;;;;4844779;29;20146;-84
2023/05/25 06:45:34;;;;;;;14.65;5.50;;;11.90;99.90;;;;;;4841729;29;20124;-84
2023/05/25 06:47:59;;;;;;;14.68;5.20;;;11.90;99.90;;;;;;4841509;29;20483;-83
2023/05/25 06:50:25;;;;;;;15.70;4.80;;;11.90;99.90;;;;;;4838650;29;20042;-85
2023/05/25 06:52:51;;;;;;;16.83;5.65;;;12.00;99.90;;;;;;4847718;29;20092;-84
2023/05/25 06:55:16;;;;;;;19.40;5.80;;;12.00;99.90;;;;;;4842487;29;20396;-84
2023/05/25 06:57:42;;;;;;;14.77;4.97;;;12.10;99.90;;;;;;4841830;29;20042;-85
2023/05/25 07:00:11;;;;;;;14.07;5.00;;;12.20;99.90;;;;;;4846820;29;20129;-84
2023/05/25 07:02:38;;;;;;;15.25;5.00;;;12.20;99.90;;;;;;4848253;29;20069;-84
2023/05/25 07:05:04;;;;;;;13.93;4.60;;;12.30;99.90;;;;;;4846769;29;20050;-83
2023/05/25 07:07:33;;;;;;;16.17;4.70;;;12.30;99.90;;;;;;4842076;29;20484;-84
2023/05/25 07:09:59;;;;;;;11.88;3.97;;;12.40;99.90;;;;;;4845837;29;20045;-84
2023/05/25 07:12:24;;;;;;;15.43;4.18;;;12.50;99.90;;;;;;4840846;29;20060;-84
2023/05/25 07:14:50;;;;;;;13.57;4.25;;;12.50;99.70;;;;;;4839015;29;20141;-83
2023/05/25 07:17:16;;;;;;;13.82;3.95;;;12.50;99.40;;;;;;4845632;29;20419;-83
2023/05/25 07:19:42;;;;;;;17.88;3.83;;;12.60;99.30;;;;;;4846456;29;20114;-82
2023/05/25 07:22:11;;;;;;;14.73;4.05;;;12.70;99.00;;;;;;4840053;29;20068;-83
2023/05/25 07:24:36;;;;;;;15.65;4.13;;;12.70;98.60;;;;;;4841364;29;20042;-84
2023/05/25 07:27:02;;;;;;;20.90;4.25;;;12.80;98.60;;;;;;4843966;29;20063;-84
2023/05/25 07:29:28;;;;;;;15.23;3.90;;;12.90;98.30;;;;;;4841742;29;20081;-84
2023/05/25 07:31:53;;;;;;;17.15;3.75;;;13.00;98.20;;;;;;4844983;29;20452;-83
2023/05/25 07:34:19;;;;;;;17.13;4.00;;;13.10;98.00;;;;;;4840143;29;20054;-83
2023/05/25 07:36:45;;;;;;;17.58;4.25;;;13.10;97.70;;;;;;4846857;29;20046;-83
2023/05/25 07:39:11;;;;;;;17.13;4.03;;;13.10;97.40;;;;;;4842563;29;20053;-83
2023/05/25 07:41:37;;;;;;;15.23;4.00;;;13.20;97.60;;;;;;4843697;29;20073;-83
2023/05/25 07:44:03;;;;;;;15.02;4.45;;;13.30;97.50;;;;;;4847908;29;20053;-83
2023/05/25 07:46:29;;;;;;;19.40;4.43;;;13.40;97.50;;;;;;4844933;29;20053;-84
2023/05/25 07:48:57;;;;;;;20.25;3.67;;;13.40;97.30;;;;;;4840350;29;20050;-84
2023/05/25 07:51:24;;;;;;;17.30;4.03;;;13.50;97.20;;;;;;4847159;29;20045;-84
2023/05/25 07:53:51;;;;;;;18.50;4.22;;;13.60;97.20;;;;;;4844960;29;20057;-85
2023/05/25 07:56:16;;;;;;;16.58;3.90;;;13.60;97.20;;;;;;4841263;29;20049;-87
2023/05/25 07:58:42;;;;;;;17.58;4.20;;;13.60;97.10;;;;;;4840918;29;20042;-85
2023/05/25 08:01:08;;;;;;;17.38;4.05;;;13.70;97.10;;;;;;4842327;29;20388;-86
2023/05/25 08:03:33;;;;;;;14.63;3.55;;;13.80;97.10;;;;;;4841313;29;20045;-85
2023/05/25 08:05:59;;;;;;;20.20;4.60;;;13.80;97.00;;;;;;4840042;29;20137;-84
2023/05/25 08:08:25;;;;;;;16.55;3.88;;;13.80;96.90;;;;;;4842189;29;20529;-84
2023/05/25 08:10:51;;;;;;;13.73;3.20;;;13.90;96.90;;;;;;4843306;29;20041;-85
2023/05/25 08:13:16;;;;;;;14.98;3.65;;;13.90;96.90;;;;;;4842230;29;20134;-85
2023/05/25 08:15:42;;;;;;;21.88;4.95;;;13.90;96.90;;;;;;4842044;29;20518;-84
2023/05/25 08:18:08;;;;;;;20.42;4.60;;;14.00;97.00;;;;;;4850684;29;20128;-84
2023/05/25 08:20:34;;;;;;;19.08;4.35;;;14.10;96.40;;;;;;4852803;29;20034;-83
2023/05/25 08:23:00;;;;;;;14.90;4.03;;;14.20;96.00;;;;;;4841425;29;20136;-84
2023/05/25 08:25:26;;;;;;;16.65;3.80;;;14.20;95.90;;;;;;4846351;29;20037;-83
2023/05/25 08:27:52;;;;;;;18.02;4.32;;;14.20;96.10;;;;;;4844900;29;20522;-86
2023/05/25 08:30:17;;;;;;;18.48;3.78;;;14.30;96.10;;;;;;4854408;29;20093;-85
2023/05/25 08:32:43;;;;;;;20.20;4.35;;;14.40;96.00;;;;;;4845237;29;20045;-84
2023/05/25 08:35:12;;;;;;;17.35;4.20;;;14.40;96.10;;;;;;4826263;29;20133;-84
2023/05/25 08:37:38;;;;;;;23.90;4.65;;;14.50;96.00;;;;;;4860320;29;20101;-84
2023/05/25 08:40:06;;;;;;;17.95;4.28;;;14.60;95.50;;;;;;4842359;29;20053;-83
2023/05/25 08:42:32;;;;;;;18.00;4.22;;;14.60;94.80;;;;;;4845777;29;20046;-83
2023/05/25 08:44:58;;;;;;;24.42;4.53;;;14.70;95.10;;;;;;4840868;29;20050;-84
2023/05/25 08:47:28;;;;;;;21.25;4.68;;;14.70;94.70;;;;;;4847549;29;20049;-82
2023/05/25 08:49:55;;;;;;;25.20;4.97;;;14.70;94.20;;;;;;4840889;29;20145;-84
2023/05/25 08:52:23;;;;;;;24.65;5.00;;;14.80;93.70;;;;;;4847455;29;20053;-83
2023/05/25 08:54:52;;;;;;;25.90;4.95;;;14.70;93.50;;;;;;4848735;29;20045;-83
2023/05/25 08:57:45;;;;;;;21.00;4.80;;;14.80;93.10;;;;;;4853670;29;20053;-83
2023/05/25 09:00:14;;;;;;;19.70;4.55;;;14.80;93.30;;;;;;4854041;29;20097;-82
2023/05/25 09:02:52;;;;;;;21.83;4.95;;;14.80;94.00;;;;;;4849462;29;20390;-84
2023/05/25 09:05:20;;;;;;;23.42;4.85;;;14.90;94.00;;;;;;4843737;29;20503;-82
2023/05/25 09:07:46;;;;;;;26.27;5.22;;;15.00;94.20;;;;;;4848706;29;20045;-80
2023/05/25 09:10:13;;;;;;;25.38;4.90;;;15.10;93.20;;;;;;4849823;29;20515;-83
2023/05/25 09:12:41;;;;;;;20.50;4.60;;;15.20;92.80;;;;;;4850077;29;20060;-83
2023/05/25 09:15:10;;;;;;;26.23;5.38;;;15.20;93.20;;;;;;4842104;29;20065;-84
2023/05/25 09:17:35;;;;;;;25.40;4.70;;;15.30;93.00;;;;;;4846546;29;20048;-83
2023/05/25 09:20:02;;;;;;;22.70;5.28;;;15.40;93.10;;;;;;4842709;29;20049;-84
2023/05/25 09:22:28;;;;;;;20.42;4.93;;;15.40;92.90;;;;;;4843524;29;20139;-83
2023/05/25 09:24:53;;;;;;;19.80;4.47;;;15.50;93.20;;;;;;4843831;29;20132;-82
2023/05/25 09:27:21;;;;;;;30.05;5.28;;;15.50;92.80;;;;;;4850372;29;20052;-82
2023/05/25 09:29:48;;;;;;;22.83;5.03;;;15.60;92.00;;;;;;4849529;29;20046;-83
2023/05/25 09:32:15;;;;;;;23.52;4.80;;;15.60;91.90;;;;;;4846686;29;20053;-83
2023/05/25 09:34:45;;;;;;;18.63;4.70;;;15.60;91.60;;;;;;4841939;29;20132;-83
2023/05/25 09:37:12;;;;;;;18.70;4.78;;;15.60;90.70;;;;;;4842199;29;20110;-83
2023/05/25 09:39:40;;;;;;;20.95;4.68;;;15.60;91.70;;;;;;4853661;29;20042;-82
2023/05/25 09:42:06;;;;;;;16.85;4.28;;;15.60;91.00;;;;;;4842676;29;20443;-82
2023/05/25 09:44:31;;;;;;;25.70;5.22;;;15.60;92.00;;;;;;4843388;29;20128;-82
2023/05/25 09:46:57;;;;;;;18.50;4.22;;;15.60;91.60;;;;;;4841920;29;20045;-83
2023/05/25 09:49:23;;;;;;;20.92;4.60;;;15.70;92.70;;;;;;4844055;29;20041;-82
2023/05/25 09:51:49;;;;;;;19.80;4.53;;;15.80;92.90;;;;;;4843777;29;20071;-82
2023/05/25 09:54:15;;;;;;;27.08;4.93;;;15.80;92.80;;;;;;4841946;29;20045;-83
2023/05/25 09:56:40;;;;;;;22.20;4.85;;;15.80;91.60;;;;;;4842235;29;20098;-81
2023/05/25 09:59:06;;;;;;;25.42;4.88;;;15.80;91.00;;;;;;4842313;29;20045;-82
2023/05/25 10:01:33;;;;;;;19.45;4.32;;;15.90;90.80;;;;;;4840789;29;20049;-82
2023/05/25 10:04:00;;;;;;;20.85;4.85;;;15.90;92.20;;;;;;4842818;29;20058;-84
2023/05/25 10:06:26;;;;;;;20.00;4.85;;;16.00;90.90;;;;;;4843096;29;20061;-83
2023/05/25 10:08:55;;;;;;;19.23;4.50;;;16.10;91.70;;;;;;4841934;29;20096;-83
2023/05/25 10:11:25;;;;;;;21.48;4.90;;;16.10;90.90;;;;;;4850571;29;20041;-83
2023/05/25 10:13:53;;;;;;;21.35;5.03;;;16.20;91.30;;;;;;4843639;29;20371;-81
2023/05/25 10:16:25;;;;;;;24.35;4.80;;;16.30;91.00;;;;;;4845594;29;20102;-84
2023/05/25 10:19:02;;;;;;;25.15;4.70;;;16.30;88.10;;;;;;4844997;29;20421;-83
2023/05/25 10:21:30;;;;;;;19.63;4.68;;;16.40;88.60;;;;;;4843066;29;20053;-83
2023/05/25 10:24:11;;;;;;;20.13;4.35;;;16.30;88.50;;;;;;4841902;29;20141;-83
2023/05/25 10:26:40;;;;;;;22.10;4.95;;;16.40;91.00;;;;;;4842595;29;20057;-83
2023/05/25 10:29:07;;;;;;;20.92;4.57;;;16.50;89.80;;;;;;4857981;29;20049;-83
2023/05/25 10:31:36;;;;;;;22.95;4.45;;;16.50;88.50;;;;;;4843298;29;20045;-83
2023/05/25 10:34:02;;;;;;;18.63;4.10;;;16.50;89.90;;;;;;4843712;29;20053;-83
2023/05/25 10:36:29;;;;;;;17.58;4.32;;;16.50;90.80;;;;;;4841964;29;20046;-83
2023/05/25 10:38:55;;;;;;;18.05;4.25;;;16.60;91.70;;;;;;4842540;29;20487;-82
2023/05/25 10:41:21;;;;;;;21.52;5.15;;;16.60;90.30;;;;;;4843706;29;20060;-83
2023/05/25 10:43:48;;;;;;;20.67;4.60;;;16.60;90.00;;;;;;4841422;29;20042;-84
2023/05/25 10:46:15;;;;;;;19.45;4.70;;;16.70;91.20;;;;;;4843798;29;20050;-82
2023/05/25 10:48:47;;;;;;;19.23;4.32;;;16.80;91.30;;;;;;4843408;29;20054;-83
2023/05/25 10:51:13;;;;;;;18.35;4.30;;;16.90;89.40;;;;;;4843052;29;20052;-83
2023/05/25 10:53:46;;;;;;;19.05;4.63;;;16.90;91.30;;;;;;4841959;29;20422;-83
2023/05/25 10:56:13;;;;;;;20.70;5.00;;;17.10;91.60;;;;;;4842489;29;20050;-83
2023/05/25 10:58:43;;;;;;;21.13;4.65;;;17.10;90.30;;;;;;4842417;29;20513;-83
2023/05/25 11:01:13;;;;;;;22.30;5.00;;;17.00;88.00;;;;;;4842154;29;20053;-83
2023/05/25 11:03:54;;;;;;;21.52;4.95;;;17.10;90.30;;;;;;4843129;29;20390;-84
2023/05/25 11:06:22;;;;;;;19.45;4.40;;;17.10;88.30;;;;;;4841698;29;20069;-83
2023/05/25 11:08:53;;;;;;;20.08;4.85;;;17.20;89.60;;;;;;4841895;29;20506;-83
2023/05/25 11:11:18;;;;;;;23.05;4.80;;;17.20;91.00;;;;;;4843209;29;20053;-84
2023/05/25 11:13:49;;;;;;;19.73;4.82;;;17.20;90.50;;;;;;4840349;29;20450;-84
2023/05/25 11:16:16;;;;;;;28.00;6.00;;;17.40;89.60;;;;;;4843141;29;20483;-83
2023/05/25 11:18:50;;;;;;;23.67;5.15;;;17.30;87.30;;;;;;4840951;29;20507;-84
2023/05/25 11:21:39;;;;;;;17.65;4.25;;;17.40;87.60;;;;;;4842122;29;20050;-84
2023/05/25 11:24:16;;;;;;;19.52;4.47;;;17.40;90.20;;;;;;4842234;29;20058;-83
2023/05/25 11:27:00;;;;;;;18.15;4.47;;;17.40;91.80;;;;;;4841869;29;20096;-83
2023/05/25 11:29:30;;;;;;;25.90;5.45;;;17.50;92.30;;;;;;4841603;29;20495;-84
2023/05/25 11:31:55;;;;;;;20.42;5.35;;;17.50;89.90;;;;;;4841368;29;20050;-84
2023/05/25 11:34:24;;;;;;;23.48;5.25;;;17.50;90.90;;;;;;4840902;29;20074;-83
2023/05/25 11:36:56;;;;;;;26.00;5.15;;;17.60;91.80;;;;;;4841206;29;20053;-83
2023/05/25 11:39:22;;;;;;;19.50;4.75;;;17.70;90.10;;;;;;4856919;29;20404;-82
2023/05/25 11:42:03;;;;;;;22.88;5.28;;;17.80;91.50;;;;;;4840519;29;20049;-83
2023/05/25 11:44:30;;;;;;;23.02;4.85;;;17.80;90.90;;;;;;4841817;29;20054;-83
2023/05/25 11:47:00;;;;;;;21.67;5.15;;;17.90;92.60;;;;;;4840331;29;20057;-83
2023/05/25 11:49:26;;;;;;;16.60;4.70;;;18.00;92.30;;;;;;4842699;29;20049;-82
2023/05/25 11:51:53;;;;;;;17.35;4.70;;;18.10;91.90;;;;;;4842519;29;20420;-83
2023/05/25 11:54:26;;;;;;;24.48;5.00;;;18.10;92.00;;;;;;4840640;29;20415;-83
2023/05/25 11:56:57;;;;;;;19.25;4.93;;;18.20;92.40;;;;;;4856585;29;20058;-82
2023/05/25 11:59:24;;;;;;;23.90;5.22;;;18.30;91.20;;;;;;4856859;29;20050;-83
2023/05/25 12:01:56;;;;;;;17.38;4.35;;;18.30;89.60;;;;;;4840567;29;20109;-84
2023/05/25 12:04:22;;;;;;;24.60;4.95;;;18.30;91.30;;;;;;4842531;29;20049;-84
2023/05/25 12:06:48;;;;;;;24.13;5.18;;;18.30;89.90;;;;;;4840895;29;20433;-82
2023/05/25 12:09:19;;;;;;;24.15;5.93;;;18.20;89.80;;;;;;4841909;29;20053;-84
2023/05/25 12:11:45;;;;;;;24.13;5.07;;;18.20;88.70;;;;;;4841077;29;20499;-83
2023/05/25 12:14:11;;;;;;;23.83;5.13;;;18.20;86.40;;;;;;4840722;29;20069;-84
2023/05/25 12:16:40;;;;;;;21.90;4.60;;;18.20;89.60;;;;;;4841461;29;20113;-83
2023/05/25 12:19:07;;;;;;;17.45;4.80;;;18.10;88.80;;;;;;4842482;29;20133;-83
2023/05/25 12:21:33;;;;;;;21.27;5.45;;;18.20;90.20;;;;;;4842144;29;20125;-83
2023/05/25 12:24:00;;;;;;;18.73;4.80;;;18.20;89.70;;;;;;4842158;29;20045;-83
2023/05/25 12:26:27;;;;;;;21.02;5.20;;;18.20;88.70;;;;;;4846112;29;20046;-84
2023/05/25 12:29:06;;;;;;;19.83;5.15;;;18.20;88.80;;;;;;4844059;29;20057;-83
2023/05/25 12:31:34;;;;;;;22.33;5.10;;;18.20;88.80;;;;;;4846073;29;20050;-83
2023/05/25 12:34:03;;;;;;;20.17;4.97;;;18.20;90.10;;;;;;4845913;29;20085;-83
2023/05/25 12:36:55;;;;;;;21.15;5.13;;;18.30;86.80;;;;;;4845360;29;20045;-83
2023/05/25 12:39:30;;;;;;;21.65;4.63;;;18.30;89.00;;;;;;4842203;29;20507;-83
2023/05/25 12:42:03;;;;;;;20.13;5.15;;;18.40;87.40;;;;;;4845750;29;20050;-84
2023/05/25 12:44:34;;;;;;;20.75;5.00;;;18.40;84.90;;;;;;4844867;29;20536;-84
2023/05/25 12:47:12;;;;;;;25.35;5.35;;;18.40;89.80;;;;;;4845926;29;20053;-84
2023/05/25 12:49:42;;;;;;;24.10;5.68;;;18.50;86.40;;;;;;4844068;29;20057;-84
2023/05/25 12:52:09;;;;;;;22.73;5.13;;;18.50;86.30;;;;;;4843806;29;20050;-83
2023/05/25 12:54:45;;;;;;;19.67;4.70;;;18.60;87.90;;;;;;4845234;29;20483;-84